Home   Weather   Slovakia   Bratislava   Past weeks
Flag for Slovakia

Past Weather in Bratislava, Slovakia — Yesterday and Last 2 Weeks

Currently: 86 °F. Sunny. (Weather station: Bratislava Ivanka, Slovakia). See more current weather

Past Weather in Bratislava — Graph

°F

Bratislava Temperature Yesterday

Maximum temperature yesterday: 79 °F (at 2:30 pm)
Minimum temperature yesterday: 61 °F (at 5:30 am)
Average temperature yesterday: 70 °F

High & Low Weather Summary for the Past Weeks

 TemperatureHumidityPressure
High95 °F (Jun 29, 3:30 pm)94% (Jun 20, 10:00 pm)30.24 "Hg (Jun 20, 10:00 pm)
Low55 °F (Jun 22, 4:00 am)22% (Jun 30, 3:30 pm)29.77 "Hg (Jun 20, 5:00 pm)
Average74 °F60%29.96 "Hg
* Reported Jun 18 6:00 pm — Jul 3 6:30 pm, Bratislava. Weather by CustomWeather, © 2022

Note: Actual official high and low records may vary slightly from our data, if they occured in-between our weather recording intervals... More about our weather records

Bratislava Weather History for the Previous 24 Hours

Scroll right to see more
 ConditionsComfort  
Time TempWeatherWind HumidityBarometerVisibility
6:30 pm
Sun, Jul 3
88 °FPassing clouds.8 mph33%30.04 "HgN/A
6:00 pm88 °FPassing clouds.9 mph33%30.04 "HgN/A
5:30 pm86 °FSunny.8 mph38%30.04 "Hg10 mi
5:00 pm88 °FPassing clouds.8 mph35%30.04 "HgN/A
4:30 pm86 °FPassing clouds.10 mph38%30.04 "HgN/A
4:00 pm86 °FSunny.10 mph40%30.04 "Hg10 mi
3:30 pm86 °FSunny.12 mph40%30.07 "Hg10 mi
3:00 pm84 °FPassing clouds.9 mph43%30.07 "HgN/A
2:30 pm84 °FPassing clouds.9 mph40%30.07 "HgN/A
2:00 pm82 °FPassing clouds.8 mph42%30.07 "HgN/A
1:00 pm81 °FPassing clouds.8 mph45%30.09 "HgN/A
12:30 pm81 °FPassing clouds.8 mph45%30.09 "HgN/A
12:00 pm79 °FPassing clouds.9 mph45%30.09 "HgN/A
11:30 am77 °FPassing clouds.9 mph47%30.09 "HgN/A
11:00 am77 °FPassing clouds.8 mph47%30.12 "HgN/A
10:30 am75 °FPassing clouds.9 mph50%30.12 "HgN/A
10:00 am73 °FPassing clouds.7 mph57%30.12 "HgN/A
9:30 am72 °FSunny.5 mph61%30.12 "Hg10 mi
9:00 am70 °FPassing clouds.5 mph64%30.12 "HgN/A
8:30 am70 °FSunny.2 mph60%30.12 "Hg10 mi
8:00 am68 °FSunny.2 mph64%30.12 "Hg10 mi
7:00 am63 °FSunny.2 mph77%30.12 "Hg10 mi
6:30 am59 °FSunny.3 mph88%30.12 "Hg10 mi
6:00 am59 °FSunny.3 mph82%30.12 "Hg10 mi
5:30 am57 °FSunny.2 mph88%30.09 "Hg10 mi
5:00 am57 °FSunny.2 mph88%30.09 "Hg10 mi
4:30 am57 °FClear.2 mph88%30.09 "Hg10 mi
4:00 am59 °FClear.2 mph82%30.12 "Hg10 mi
3:30 am61 °FClear.2 mph77%30.12 "Hg10 mi
3:00 am59 °FClear.1 mph77%30.12 "Hg10 mi
1:30 am64 °FClear.6 mph73%30.12 "Hg10 mi
1:00 am64 °FClear.2 mph68%30.15 "Hg10 mi
12:30 am64 °FClear.3 mph68%30.15 "Hg10 mi
12:00 am64 °FClear.3 mph68%30.15 "Hg10 mi
11:30 pm
Sat, Jul 2
66 °FClear.1 mph64%30.15 "Hg10 mi
11:00 pm68 °FClear.3 mph60%30.15 "Hg10 mi
10:00 pm70 °FClear.7 mph57%30.15 "Hg10 mi
9:30 pm70 °FClear.6 mph57%30.15 "Hg10 mi
9:00 pm70 °FClear.5 mph60%30.15 "Hg10 mi
8:00 pm73 °FSunny.12 mph53%30.15 "Hg10 mi
7:00 pm75 °FSunny.13 mph50%30.15 "Hg10 mi
Weather by CustomWeather, © 2022

See weather overview